Главная страница
METAR-TAF:

METAR-TAF

Аэропорты :

Key Lake, Саскачеван, Канада

широта: 57-15N, долгота: 105-37W, высота над уровнем моря: 509 м

Текущие метеонаблюдения

Эта сводка был подготовлена 15 минут назад, в 09:00 UTC
Ветер 8 Узел от юго-юго-восточный, изменяющийся между восточно-юго-восточный и южный
Температура -7°C
Влажность 93%
Давление 988 hPa
Видимость: 14.5 км
Сплошная облачность на высоте 16000 фута

METAR: CYKJ 120900Z AUTO 15008KT 110V170 9SM OVC160 M07/M08 A2919 RMK SLP918

Время: 03:15 (09:15 UTC)

Прогноз

Эта сводка был подготовлена 14 часа и 37 минут назад, в 18:38 UTC
Прогноз действительный с 11-го 19 UTC до 11-го 24 UTC
Ветер 3 Узел переменных направлений
Видимость: 10 км
ясное небо

TAF: CYKJ 111838Z 1119/1124 VRB03KT P6SM SKC RMK FCST BASED ON AUTO OBS. NXT FCST WILL BE ISSUED AT 120945Z

Метеонаблюдения и прогнозы для более 4000 аэропортов (сводки METAR и TAF).

Имеющиеся станции представлены на карте желтыми и красными точками.

Чтобы увидеть название станции, наведите на нее мышь.

Затем щелкните, чтобы увидеть метеонаблюдения и метеопрогнозы.

Управление картой: чтобы увеличить масштаб, щелкните зеленые кнопки с черным крестиком; чтобы уменьшить масштаб, щелкните зеленую кнопку с тире; для просмотра соседних карт щелкайте зеленые стрелки.


METAR-TAF: